Time;durP1;ratioP1;P1;durP2;ratioP2;P2;SDS_P1;SDS_P2;PMS_P1;PMS_P2;Temp;Humidity;BMP_temperature;BMP_pressure;BME280_temperature;BME280_humidity;BME280_pressure;Samples;Min_cycle;Max_cycle;Signal;HPM_P1;HPM_P2
2022/04/12 00:01:29;;;;;;;;;6.50;6.25;;;;;10.79;45.24;101546.88;146596;605;46020;-78
2022/04/12 00:04:20;;;;;;;;;6.75;6.75;;;;;10.77;45.43;101543.28;146591;566;46017;-74
2022/04/12 00:07:14;;;;;;;;;6.00;6.00;;;;;10.72;45.34;101540.41;146595;604;46020;-73
2022/04/12 00:10:06;;;;;;;;;6.25;4.50;;;;;10.71;45.76;101535.09;146592;633;46017;-73
2022/04/12 00:13:00;;;;;;;;;5.00;5.00;;;;;10.68;46.89;101537.50;146595;606;46008;-75
2022/04/12 00:15:52;;;;;;;;;6.00;5.00;;;;;10.60;46.81;101526.66;146591;582;47010;-73
2022/04/12 00:21:54;;;;;;;;;6.75;6.00;;;;;10.40;46.70;101535.72;146590;581;46033;-76
2022/04/12 00:24:46;;;;;;;;;9.25;7.00;;;;;10.38;46.55;101538.22;146585;602;47008;-76
2022/04/12 00:27:38;;;;;;;;;5.75;5.75;;;;;10.45;46.18;101542.13;146592;598;46012;-74
2022/04/12 00:30:32;;;;;;;;;6.00;6.00;;;;;10.53;46.05;101532.22;146596;592;46020;-74
2022/04/12 00:33:24;;;;;;;;;7.00;7.00;;;;;10.62;45.54;101530.22;146590;567;46016;-75
2022/04/12 00:36:17;;;;;;;;;7.00;6.75;;;;;10.25;46.51;101460.44;146593;569;46020;-74
2022/04/12 00:39:09;;;;;;;;;5.50;5.25;;;;;10.68;44.78;101530.59;146590;620;46016;-76
2022/04/12 00:42:01;;;;;;;;;8.75;8.75;;;;;10.69;45.09;101532.41;146594;618;47008;-75
2022/04/12 00:44:53;;;;;;;;;8.00;6.75;;;;;10.71;44.96;101540.28;146591;630;46010;-75
2022/04/12 00:47:46;;;;;;;;;5.00;4.50;;;;;10.76;45.01;101534.59;146592;579;47009;-76
2022/04/12 00:50:39;;;;;;;;;4.75;4.75;;;;;10.80;44.99;101535.69;146589;618;47010;-77
2022/04/12 00:53:32;;;;;;;;;6.25;6.00;;;;;10.79;44.68;101539.97;146586;656;47918;-77
2022/04/12 00:56:25;;;;;;;;;5.00;5.00;;;;;10.77;44.49;101536.38;146592;619;46010;-86
2022/04/12 00:59:17;;;;;;;;;7.25;6.25;;;;;10.71;44.25;101532.50;146593;602;46020;-80
2022/04/12 01:02:10;;;;;;;;;12.25;10.75;;;;;10.66;44.86;101537.41;146591;632;46919;-77
2022/04/12 01:05:04;;;;;;;;;11.75;10.75;;;;;10.63;45.23;101532.91;146591;566;46020;-80
2022/04/12 01:07:56;;;;;;;;;10.00;7.75;;;;;10.67;45.18;101531.41;146591;579;45919;-78
2022/04/12 01:10:49;;;;;;;;;7.50;7.50;;;;;10.71;45.15;101533.41;146596;646;45051;-78
2022/04/12 01:13:41;;;;;;;;;5.00;5.00;;;;;10.78;45.50;101534.72;146593;576;46010;-77
2022/04/12 01:16:33;;;;;;;;;7.00;6.00;;;;;10.73;45.50;101523.12;146594;605;46008;-76
2022/04/12 01:19:25;;;;;;;;;4.25;4.25;;;;;10.63;45.14;101521.66;146593;657;45919;-76
2022/04/12 01:22:26;;;;;;;;;5.75;5.00;;;;;10.58;44.95;101526.53;146586;634;46008;-80
2022/04/12 01:25:18;;;;;;;;;6.50;4.75;;;;;10.50;44.67;101524.25;146589;703;47012;-81
2022/04/12 01:28:12;;;;;;;;;4.00;4.00;;;;;10.42;44.96;101528.94;146597;590;46008;-86
2022/04/12 01:31:04;;;;;;;;;4.00;3.75;;;;;10.35;45.49;101535.44;146590;572;46919;-84
2022/04/12 01:33:57;;;;;;;;;4.25;4.00;;;;;10.28;46.26;101532.31;146595;605;45021;-83
2022/04/12 01:36:49;;;;;;;;;5.75;4.75;;;;;10.18;46.66;101538.56;146592;601;47010;-71
2022/04/12 01:39:41;;;;;;;;;4.75;4.00;;;;;10.07;46.76;101537.88;146595;587;46008;-77
2022/04/12 01:42:34;;;;;;;;;8.50;6.75;;;;;9.94;47.18;101535.28;146588;605;46016;-79
2022/04/12 01:45:26;;;;;;;;;5.75;5.00;;;;;9.86;47.75;101544.22;146596;600;46008;-77
2022/04/12 01:48:18;;;;;;;;;9.00;7.00;;;;;9.77;47.24;101534.13;146589;572;46016;-80
2022/04/12 01:51:10;;;;;;;;;4.50;4.50;;;;;9.70;47.86;101543.19;146589;590;46020;-86
2022/04/12 01:54:03;;;;;;;;;6.75;5.75;;;;;9.66;47.55;101551.56;146593;569;46030;-75
2022/04/12 01:56:55;;;;;;;;;4.50;4.50;;;;;9.64;47.19;101545.34;146595;643;46008;-74
2022/04/12 01:59:47;;;;;;;;;5.00;4.50;;;;;9.68;47.35;101552.53;146590;658;46012;-73
2022/04/12 02:02:39;;;;;;;;;6.00;4.75;;;;;9.56;47.33;101522.31;146591;598;46021;-73
2022/04/12 02:05:31;;;;;;;;;5.50;4.00;;;;;9.73;46.63;101551.97;146594;687;47010;-75
2022/04/12 02:08:24;;;;;;;;;5.25;4.50;;;;;9.76;46.31;101554.75;146596;573;46021;-73
2022/04/12 02:11:16;;;;;;;;;6.50;5.50;;;;;9.84;47.39;101548.37;146593;575;46919;-79
2022/04/12 02:14:08;;;;;;;;;4.50;4.50;;;;;9.86;46.98;101547.69;146595;586;46010;-76
2022/04/12 02:17:01;;;;;;;;;6.00;6.00;;;;;9.89;46.62;101552.19;146591;615;46017;-75
2022/04/12 02:19:52;;;;;;;;;8.00;6.75;;;;;9.97;46.63;101547.50;146610;597;47917;-75
2022/04/12 02:22:45;;;;;;;;;6.75;6.75;;;;;10.01;46.43;101542.66;146611;620;46013;-76
2022/04/12 02:25:37;;;;;;;;;9.25;6.50;;;;;10.02;46.73;101547.03;146615;654;45008;-78
2022/04/12 02:28:29;;;;;;;;;12.50;12.00;;;;;10.00;46.92;101551.25;146614;579;45010;-79
2022/04/12 02:31:22;;;;;;;;;15.00;12.00;;;;;10.00;46.69;101558.09;146609;578;47916;-79
2022/04/12 02:34:14;;;;;;;;;7.25;5.50;;;;;9.95;47.34;101560.38;146610;592;45919;-78
2022/04/12 02:37:07;;;;;;;;;4.25;4.25;;;;;9.90;47.56;101556.56;146611;563;45916;-78
2022/04/12 02:39:59;;;;;;;;;5.25;5.00;;;;;9.75;47.69;101555.53;146612;587;45016;-77
2022/04/12 02:42:51;;;;;;;;;6.00;6.00;;;;;9.62;47.93;101557.28;146613;607;45020;-72
2022/04/12 02:45:43;;;;;;;;;6.25;6.00;;;;;9.53;47.88;101558.34;146612;569;45918;-73
2022/04/12 02:48:36;;;;;;;;;5.50;4.75;;;;;9.45;49.48;101557.84;146614;599;46008;-73
2022/04/12 02:51:27;;;;;;;;;3.25;3.25;;;;;9.42;48.77;101561.12;146610;653;47008;-73
2022/04/12 02:54:20;;;;;;;;;6.00;6.00;;;;;9.38;48.83;101553.06;146612;566;45021;-76
2022/04/12 02:57:11;;;;;;;;;4.50;4.50;;;;;9.34;48.68;101562.25;146611;563;45016;-75
2022/04/12 03:00:04;;;;;;;;;5.50;4.00;;;;;9.29;47.80;101568.84;146614;581;45021;-76
2022/04/12 03:02:55;;;;;;;;;6.00;5.50;;;;;9.25;47.74;101571.97;146610;640;45919;-76
2022/04/12 03:05:48;;;;;;;;;5.50;5.00;;;;;9.27;47.36;101574.69;146612;611;45020;-72
2022/04/12 03:08:40;;;;;;;;;5.00;5.00;;;;;9.36;46.83;101586.56;146612;611;45919;-72
2022/04/12 03:11:34;;;;;;;;;4.25;4.25;;;;;9.41;47.06;101579.16;146615;609;46008;-72
2022/04/12 03:14:26;;;;;;;;;5.00;5.00;;;;;9.40;46.80;101580.81;146616;604;46011;-72
2022/04/12 03:17:18;;;;;;;;;6.25;5.50;;;;;9.37;47.13;101584.88;146614;579;46008;-75
2022/04/12 03:20:12;;;;;;;;;5.25;4.25;;;;;9.31;47.44;101592.22;146591;616;46012;-77
2022/04/12 03:23:04;;;;;;;;;5.75;5.00;;;;;9.22;48.25;101595.06;146593;574;47009;-75
2022/04/12 03:25:56;;;;;;;;;6.75;6.75;;;;;9.16;47.51;101594.66;146591;595;46016;-75
2022/04/12 03:28:48;;;;;;;;;5.25;5.00;;;;;9.16;47.55;101597.25;146595;706;46015;-75
2022/04/12 03:31:40;;;;;;;;;4.50;4.50;;;;;9.22;47.28;101607.97;146593;613;46011;-76
2022/04/12 03:34:32;;;;;;;;;5.75;4.00;;;;;9.29;46.61;101609.34;146594;593;46020;-75
2022/04/12 03:37:24;;;;;;;;;5.25;5.25;;;;;9.35;46.69;101607.19;146588;591;46017;-75
2022/04/12 03:40:18;;;;;;;;;6.00;4.75;;;;;9.37;47.67;101608.19;146593;607;46020;-75
2022/04/12 03:43:10;;;;;;;;;4.75;4.00;;;;;9.35;47.16;101615.84;146588;569;47919;-75
2022/04/12 03:46:02;;;;;;;;;6.75;6.00;;;;;9.27;47.73;101613.50;146583;615;46008;-72
2022/04/12 03:48:54;;;;;;;;;6.75;6.00;;;;;9.19;47.45;101607.78;146590;603;46012;-73
2022/04/12 03:51:46;;;;;;;;;8.50;6.50;;;;;9.16;47.24;101612.75;146591;600;46021;-74
2022/04/12 03:54:38;;;;;;;;;7.00;5.00;;;;;9.16;47.25;101620.53;146592;579;46016;-81
2022/04/12 03:57:30;;;;;;;;;5.50;4.25;;;;;9.18;47.53;101624.09;146594;700;46008;-79
2022/04/12 04:00:22;;;;;;;;;6.00;5.00;;;;;9.19;47.69;101623.28;146590;617;46011;-79
2022/04/12 04:03:15;;;;;;;;;7.00;7.00;;;;;9.17;47.84;101625.78;146590;564;47008;-76
2022/04/12 04:06:07;;;;;;;;;6.50;6.25;;;;;9.18;47.79;101635.34;146590;594;46017;-72
2022/04/12 04:08:59;;;;;;;;;7.75;5.00;;;;;9.16;47.93;101642.12;146593;572;46010;-71
2022/04/12 04:11:52;;;;;;;;;7.00;5.25;;;;;9.15;47.72;101642.00;146589;591;47010;-72
2022/04/12 04:14:44;;;;;;;;;6.00;6.00;;;;;9.08;48.03;101635.47;146585;601;46021;-72
2022/04/12 04:17:36;;;;;;;;;4.25;4.00;;;;;9.13;47.39;101639.31;146591;583;46016;-72
2022/04/12 04:20:28;;;;;;;;;4.25;3.50;;;;;9.13;47.09;101646.19;146595;650;46020;-73
2022/04/12 04:23:21;;;;;;;;;3.50;3.50;;;;;9.17;46.70;101648.19;146592;608;46920;-72
2022/04/12 04:26:13;;;;;;;;;4.25;4.25;;;;;9.25;47.10;101658.31;146592;602;46020;-70
2022/04/12 04:29:05;;;;;;;;;5.25;5.25;;;;;9.34;46.84;101651.97;146590;578;46013;-70
2022/04/12 04:31:57;;;;;;;;;4.75;4.00;;;;;8.34;45.79;101461.19;146596;579;46008;-71
2022/04/12 04:34:49;;;;;;;;;5.50;5.50;;;;;9.48;47.37;101661.63;146590;580;46016;-73
2022/04/12 04:37:52;;;;;;;;;5.75;5.75;;;;;9.57;46.60;101664.84;146593;602;46021;-73
2022/04/12 04:40:45;;;;;;;;;7.25;5.00;;;;;9.63;46.30;101669.56;146590;602;47010;-76
2022/04/12 04:43:37;;;;;;;;;8.00;6.75;;;;;9.78;47.54;101677.47;146584;646;47008;-75
2022/04/12 04:46:30;;;;;;;;;8.00;6.00;;;;;10.25;46.91;101673.00;146591;667;46010;-76
2022/04/12 04:49:22;;;;;;;;;9.50;6.50;;;;;10.86;46.47;101670.97;146593;573;47008;-75
2022/04/12 04:52:14;;;;;;;;;9.00;9.00;;;;;11.43;44.40;101670.34;146589;570;47012;-76
2022/04/12 04:55:07;;;;;;;;;6.00;5.50;;;;;11.82;43.08;101670.09;146593;604;46020;-74
2022/04/12 04:58:01;;;;;;;;;7.25;6.75;;;;;11.98;41.80;101676.34;146594;599;46008;-74
2022/04/12 05:00:53;;;;;;;;;8.00;7.50;;;;;11.97;42.18;101673.66;146594;599;46021;-74
2022/04/12 05:03:45;;;;;;;;;6.75;6.75;;;;;11.11;42.48;101512.53;146592;571;46012;-73
2022/04/12 05:06:37;;;;;;;;;9.00;7.75;;;;;12.08;42.83;101683.00;146594;571;46021;-73
2022/04/12 05:09:30;;;;;;;;;6.50;6.25;;;;;12.22;42.79;101676.94;146588;623;46016;-73
2022/04/12 05:12:22;;;;;;;;;7.00;6.75;;;;;12.40;42.49;101686.66;146586;566;47008;-73
2022/04/12 05:15:14;;;;;;;;;7.50;4.75;;;;;12.57;41.68;101680.72;146590;575;46017;-76
2022/04/12 05:18:07;;;;;;;;;8.50;6.25;;;;;12.75;42.64;101683.50;146591;577;46020;-76
2022/04/12 05:20:59;;;;;;;;;9.00;7.25;;;;;13.00;42.93;101692.72;146592;588;46016;-77
2022/04/12 05:23:51;;;;;;;;;7.75;7.50;;;;;13.26;42.51;101694.19;146595;619;46008;-72
2022/04/12 05:26:44;;;;;;;;;6.25;5.75;;;;;13.47;41.86;101692.78;146589;602;47012;-74
2022/04/12 05:29:36;;;;;;;;;9.75;7.75;;;;;13.65;41.64;101692.00;146591;565;46021;-75
2022/04/12 05:32:28;;;;;;;;;7.50;7.00;;;;;13.80;41.77;101698.94;146592;707;46010;-78
2022/04/12 05:35:20;;;;;;;;;9.00;8.50;;;;;13.94;41.75;101691.84;146593;614;46020;-79
2022/04/12 05:38:12;;;;;;;;;7.25;5.75;;;;;13.90;41.75;101665.53;146592;650;46017;-79
2022/04/12 05:41:04;;;;;;;;;7.50;6.00;;;;;14.27;41.22;101710.09;146588;629;46021;-86
2022/04/12 05:43:57;;;;;;;;;6.00;6.00;;;;;14.46;40.70;101711.91;146590;598;46012;-85
2022/04/12 05:46:49;;;;;;;;;8.75;6.75;;;;;14.66;39.94;101708.63;146595;610;46020;-86
2022/04/12 05:49:41;;;;;;;;;7.25;7.25;;;;;14.83;39.69;101711.16;146590;577;47010;-81
2022/04/12 05:52:33;;;;;;;;;8.00;6.00;;;;;15.00;40.13;101712.91;146594;614;46021;-73
2022/04/12 05:55:29;;;;;;;;;9.25;6.75;;;;;15.19;39.69;101719.94;146589;573;47010;-82
2022/04/12 05:58:21;;;;;;;;;9.00;7.25;;;;;15.37;40.42;101715.59;146594;687;46009;-70
2022/04/12 06:01:13;;;;;;;;;8.50;5.75;;;;;15.55;41.14;101718.19;146590;626;46017;-79
2022/04/12 06:04:05;;;;;;;;;7.00;7.00;;;;;15.74;41.04;101717.34;146592;600;46020;-75
2022/04/12 06:06:57;;;;;;;;;7.75;7.00;;;;;15.90;42.00;101719.81;146590;565;47010;-76
2022/04/12 06:09:50;;;;;;;;;7.25;6.25;;;;;15.96;41.59;101727.06;146587;613;46008;-75
2022/04/12 06:12:43;;;;;;;;;7.50;6.25;;;;;16.07;42.09;101724.91;146589;617;47010;-78
2022/04/12 06:15:35;;;;;;;;;8.00;6.75;;;;;16.13;41.28;101727.81;146590;679;46021;-78
2022/04/12 06:18:26;;;;;;;;;8.75;8.00;;;;;16.17;41.80;101724.53;146591;577;47010;-78
2022/04/12 06:21:19;;;;;;;;;9.25;6.50;;;;;16.25;41.40;101730.06;146592;576;46020;-77
2022/04/12 06:24:11;;;;;;;;;9.75;9.75;;;;;16.34;40.76;101735.72;146589;642;47010;-78
2022/04/12 06:27:04;;;;;;;;;9.00;9.00;;;;;16.45;40.54;101728.31;146591;601;46020;-77
2022/04/12 06:29:55;;;;;;;;;7.00;7.00;;;;;16.56;40.62;101730.56;146591;616;46010;-77
2022/04/12 06:32:49;;;;;;;;;8.25;8.00;;;;;16.65;40.66;101718.72;146588;570;47010;-81
2022/04/12 06:35:40;;;;;;;;;10.25;10.00;;;;;16.72;40.16;101726.00;146590;570;46017;-80
2022/04/12 06:38:33;;;;;;;;;9.00;6.00;;;;;16.83;38.73;101725.66;146586;584;46008;-81
2022/04/12 06:41:24;;;;;;;;;8.75;7.75;;;;;16.91;39.59;101723.34;146591;604;46016;-81
2022/04/12 06:44:17;;;;;;;;;6.00;5.50;;;;;16.92;38.88;101725.16;146591;581;46021;-82
2022/04/12 06:47:09;;;;;;;;;7.00;7.00;;;;;17.03;38.99;101717.72;146588;575;46016;-78
2022/04/12 06:50:01;;;;;;;;;10.25;9.00;;;;;17.16;38.64;101713.84;146592;564;47011;-79
2022/04/12 06:52:54;;;;;;;;;10.00;8.25;;;;;17.17;38.38;101711.31;146589;577;46919;-78
2022/04/12 06:55:47;;;;;;;;;12.75;9.00;;;;;17.20;37.98;101715.78;146593;579;46008;-85
2022/04/12 06:58:39;;;;;;;;;11.25;9.25;;;;;17.36;39.27;101715.56;146591;606;45919;-84
2022/04/12 07:01:31;;;;;;;;;13.75;10.25;;;;;17.50;38.57;101718.72;146591;569;46020;-82
2022/04/12 07:04:23;;;;;;;;;15.25;12.00;;;;;17.52;39.20;101710.06;146585;608;46024;-79
2022/04/12 07:07:15;;;;;;;;;11.25;8.50;;;;;17.56;38.78;101718.94;146587;566;46021;-79
2022/04/12 07:10:12;;;;;;;;;10.75;10.75;;;;;17.64;38.85;101716.62;146587;586;46016;-79
2022/04/12 07:13:04;;;;;;;;;7.75;7.75;;;;;17.73;37.99;101720.50;146588;570;46009;-78
2022/04/12 07:15:56;;;;;;;;;10.25;8.75;;;;;17.76;39.80;101709.22;146588;569;46016;-78
2022/04/12 07:18:48;;;;;;;;;9.25;7.50;;;;;17.77;38.10;101719.81;146594;602;46008;-73
2022/04/12 07:21:41;;;;;;;;;5.75;5.75;;;;;17.81;38.45;101717.28;146591;597;46017;-70
2022/04/12 07:24:33;;;;;;;;;8.25;7.00;;;;;17.89;38.17;101721.09;146593;608;46020;-72
2022/04/12 07:27:25;;;;;;;;;8.25;6.75;;;;;17.93;37.97;101713.41;146588;626;46016;-72
2022/04/12 07:30:18;;;;;;;;;6.75;6.25;;;;;17.97;36.30;101717.94;146595;612;46020;-72
2022/04/12 07:33:09;;;;;;;;;5.75;5.25;;;;;17.96;36.97;101710.88;146592;637;46919;-72
2022/04/12 07:36:03;;;;;;;;;5.25;5.00;;;;;18.00;36.54;101710.16;146586;647;46021;-72
2022/04/12 07:38:55;;;;;;;;;4.50;4.50;;;;;18.12;33.61;101712.31;146590;663;46010;-72
2022/04/12 07:41:47;;;;;;;;;5.75;4.50;;;;;18.18;34.33;101709.03;146594;664;46008;-72
2022/04/12 07:44:40;;;;;;;;;4.25;3.25;;;;;18.23;35.17;101715.34;146589;569;46012;-72
2022/04/12 07:47:32;;;;;;;;;3.25;3.25;;;;;18.26;35.18;101715.47;146590;598;46020;-73
2022/04/12 07:50:24;;;;;;;;;6.50;5.25;;;;;18.31;35.49;101710.38;146589;665;47017;-72
2022/04/12 07:53:17;;;;;;;;;5.75;4.75;;;;;18.41;33.94;101718.63;146593;606;46020;-72
2022/04/12 07:56:08;;;;;;;;;5.00;4.00;;;;;18.50;33.75;101715.41;146591;585;46010;-73
2022/04/12 07:59:01;;;;;;;;;3.50;3.50;;;;;18.56;32.95;101714.75;146594;588;46020;-71
2022/04/12 08:01:53;;;;;;;;;6.00;4.75;;;;;18.55;33.42;101719.09;146584;584;46016;-72
2022/04/12 08:04:45;;;;;;;;;2.50;2.50;;;;;18.50;33.31;101720.66;146584;683;47008;-72
2022/04/12 08:07:39;;;;;;;;;3.00;2.75;;;;;18.51;33.80;101717.22;146589;590;46016;-72
2022/04/12 08:10:32;;;;;;;;;5.75;4.25;;;;;18.56;32.11;101718.25;146596;581;46008;-72
2022/04/12 08:13:24;;;;;;;;;4.00;4.00;;;;;18.54;33.18;101719.06;146588;618;46017;-72
2022/04/12 08:16:17;;;;;;;;;4.25;4.25;;;;;18.47;33.50;101717.94;146593;617;46020;-81
2022/04/12 08:19:09;;;;;;;;;3.50;2.25;;;;;18.36;33.51;101716.69;146588;595;47010;-73
2022/04/12 08:22:04;;;;;;;;;4.75;4.00;;;;;18.32;34.07;101720.94;146592;564;47008;-77
2022/04/12 08:24:56;;;;;;;;;5.50;4.50;;;;;18.36;31.18;101721.94;146590;586;47010;-77
2022/04/12 08:27:49;;;;;;;;;2.75;2.75;;;;;18.37;32.86;101718.47;146592;595;47008;-77
2022/04/12 08:30:41;;;;;;;;;4.25;4.00;;;;;18.47;32.46;101717.94;146592;589;46010;-78
2022/04/12 08:33:33;;;;;;;;;4.75;4.75;;;;;18.58;31.06;101715.69;146587;625;46020;-81
2022/04/12 08:36:25;;;;;;;;;3.50;3.50;;;;;18.61;31.75;101714.06;146593;569;46010;-79
2022/04/12 08:39:17;;;;;;;;;4.00;4.00;;;;;18.69;31.65;101715.22;146592;563;47008;-88
2022/04/12 08:42:10;;;;;;;;;3.25;3.25;;;;;18.73;32.06;101710.12;146591;601;47010;-83
2022/04/12 08:45:02;;;;;;;;;3.75;3.25;;;;;18.78;32.76;101709.41;146595;737;46008;-83
2022/04/12 08:47:55;;;;;;;;;3.75;3.75;;;;;18.82;31.54;101705.16;146592;581;45919;-83
2022/04/12 08:50:48;;;;;;;;;3.25;3.25;;;;;18.78;31.53;101696.25;146595;591;47008;-83
2022/04/12 08:53:41;;;;;;;;;5.75;4.75;;;;;18.80;31.66;101694.59;146590;602;46016;-83
2022/04/12 08:56:33;;;;;;;;;3.00;2.25;;;;;18.90;31.86;101688.78;146593;579;46020;-80
2022/04/12 08:59:30;;;;;;;;;4.00;3.25;;;;;18.97;30.88;101686.34;146591;613;46010;-83
2022/04/12 09:02:23;;;;;;;;;4.00;3.75;;;;;19.11;31.36;101685.06;146588;664;46008;-82
2022/04/12 09:05:15;;;;;;;;;4.75;4.00;;;;;19.11;29.56;101682.44;146584;573;47010;-81
2022/04/12 09:08:26;;;;;;;;;3.75;3.75;;;;;18.98;29.90;101678.53;146593;570;46020;-81
2022/04/12 09:11:18;;;;;;;;;3.50;3.50;;;;;18.86;30.82;101681.66;146590;573;46012;-81
2022/04/12 09:14:10;;;;;;;;;6.00;4.00;;;;;18.81;31.11;101672.72;146593;586;46020;-80
2022/04/12 09:17:03;;;;;;;;;5.00;3.75;;;;;18.75;29.56;101667.25;146591;614;46016;-81
2022/04/12 09:19:55;;;;;;;;;3.75;3.50;;;;;18.87;30.58;101665.03;146613;579;45021;-79
2022/04/12 09:22:47;;;;;;;;;3.00;3.00;;;;;19.04;29.08;101657.69;146610;579;46010;-80
2022/04/12 09:25:55;;;;;;;;;5.00;4.00;;;;;19.13;28.60;101657.09;146613;608;45021;-82
2022/04/12 09:28:48;;;;;;;;;4.00;3.00;;;;;19.20;30.16;101653.81;146611;666;46919;-80
2022/04/12 09:31:41;;;;;;;;;2.50;2.50;;;;;19.17;28.12;101645.81;146613;658;45020;-81
2022/04/12 09:34:32;;;;;;;;;3.75;3.50;;;;;18.93;27.34;101643.31;146613;604;45028;-79
2022/04/12 09:37:30;;;;;;;;;4.00;4.00;;;;;18.73;29.00;101640.06;146613;638;46008;-80
2022/04/12 09:40:22;;;;;;;;;3.50;3.25;;;;;18.60;28.69;101636.13;146611;601;46013;-79
2022/04/12 09:43:15;;;;;;;;;4.00;4.00;;;;;18.59;29.50;101639.56;146613;649;46008;-79
2022/04/12 09:46:14;;;;;;;;;4.00;4.00;;;;;18.67;29.37;101637.19;146612;609;45010;-80
2022/04/12 09:49:07;;;;;;;;;5.00;4.25;;;;;18.79;29.62;101639.38;146612;626;46008;-80
2022/04/12 09:51:59;;;;;;;;;4.00;4.00;;;;;18.77;29.55;101623.53;146613;731;45027;-78
2022/04/12 09:54:51;;;;;;;;;5.50;4.50;;;;;18.88;29.63;101634.41;146612;635;45020;-70
2022/04/12 09:57:44;;;;;;;;;3.25;2.00;;;;;18.93;30.30;101635.44;146612;693;45016;-81
2022/04/12 10:00:42;;;;;;;;;5.75;3.25;;;;;18.90;28.99;101632.72;146613;587;46917;-80
2022/04/12 10:03:34;;;;;;;;;3.75;3.75;;;;;18.89;30.80;101625.69;146611;599;45017;-77
2022/04/12 10:06:31;;;;;;;;;5.50;4.00;;;;;18.92;29.76;101626.66;146615;657;46008;-77
2022/04/12 10:09:24;;;;;;;;;3.75;3.75;;;;;19.02;30.05;101621.69;146615;564;46920;-78
2022/04/12 10:12:17;;;;;;;;;4.00;4.00;;;;;19.08;29.64;101622.78;146614;593;45917;-77
2022/04/12 10:15:11;;;;;;;;;4.50;3.50;;;;;18.98;28.08;101609.31;146612;655;45919;-78
2022/04/12 10:18:04;;;;;;;;;5.50;4.25;;;;;18.85;29.66;101603.66;146603;582;46008;-78
2022/04/12 10:20:57;;;;;;;;;4.00;4.00;;;;;18.79;29.41;101600.84;146590;569;46016;-77
2022/04/12 10:23:57;;;;;;;;;3.50;3.50;;;;;18.83;30.39;101605.34;146595;605;46008;-78
2022/04/12 10:26:50;;;;;;;;;3.50;3.50;;;;;18.80;28.86;101592.13;146588;661;47012;-78
2022/04/12 10:29:42;;;;;;;;;4.00;4.00;;;;;18.84;29.71;101587.84;146584;587;47008;-77
2022/04/12 10:32:34;;;;;;;;;4.25;4.25;;;;;18.80;28.70;101586.84;146590;718;46016;-76
2022/04/12 10:35:27;;;;;;;;;4.25;4.25;;;;;18.91;29.65;101574.06;146592;569;46020;-77
2022/04/12 10:38:22;;;;;;;;;4.00;2.00;;;;;17.06;28.29;101236.59;146589;707;46016;-78
2022/04/12 10:41:32;;;;;;;;;3.00;2.75;;;;;19.04;28.02;101575.34;146594;718;45021;-77
2022/04/12 10:44:25;;;;;;;;;5.50;4.00;;;;;19.16;29.90;101580.97;146590;590;46012;-77
2022/04/12 10:47:44;;;;;;;;;4.25;4.25;;;;;19.43;31.34;101575.59;146594;685;46008;-77
2022/04/12 10:50:56;;;;;;;;;3.50;3.50;;;;;19.57;27.94;101557.59;146590;613;46016;-78
2022/04/12 10:53:58;;;;;;;;;4.00;2.50;;;;;19.47;29.71;101558.16;146593;663;46008;-76
2022/04/12 10:56:50;;;;;;;;;3.00;3.00;;;;;19.45;27.98;101552.88;146592;635;46010;-76
2022/04/12 10:59:43;;;;;;;;;2.00;2.00;;;;;19.54;27.47;101550.50;146585;573;47008;-78
2022/04/12 11:02:44;;;;;;;;;3.00;3.00;;;;;19.70;29.51;101545.69;146589;643;46016;-75
2022/04/12 11:06:05;;;;;;;;;2.25;2.00;;;;;19.04;29.62;101383.47;146595;598;45028;-77
2022/04/12 11:09:16;;;;;;;;;5.25;4.00;;;;;20.03;28.40;101543.03;146589;695;46016;-76
2022/04/12 11:12:09;;;;;;;;;3.50;3.00;;;;;20.08;27.54;101522.97;146594;616;46024;-77
2022/04/12 11:15:24;;;;;;;;;2.75;2.75;;;;;19.27;29.27;101368.28;146589;668;46016;-77
2022/04/12 11:18:20;;;;;;;;;4.50;4.50;;;;;20.12;27.43;101516.06;146596;576;45021;-77
2022/04/12 11:21:12;;;;;;;;;4.00;3.00;;;;;20.00;27.60;101507.00;146592;622;46010;-78
2022/04/12 11:24:05;;;;;;;;;4.00;3.75;;;;;19.92;26.51;101502.41;146592;564;46009;-77
2022/04/12 11:27:14;;;;;;;;;4.25;3.75;;;;;19.93;29.70;101518.22;146593;684;46010;-78
2022/04/12 11:30:07;;;;;;;;;2.75;2.75;;;;;19.99;28.69;101505.22;146588;629;46020;-77
2022/04/12 11:33:00;;;;;;;;;3.25;3.25;;;;;20.08;26.26;101500.19;146588;678;46017;-77
2022/04/12 11:35:55;;;;;;;;;2.50;2.50;;;;;20.13;27.37;101504.69;146593;615;47008;-79
2022/04/12 11:38:47;;;;;;;;;2.75;2.75;;;;;20.01;24.32;101495.63;146593;684;46919;-78
2022/04/12 11:41:39;;;;;;;;;3.00;3.00;;;;;19.73;24.49;101498.41;146591;572;47008;-78
2022/04/12 11:44:31;;;;;;;;;3.00;2.25;;;;;19.45;26.27;101488.84;146588;573;47012;-77
2022/04/12 11:47:24;;;;;;;;;4.50;4.50;;;;;19.35;26.92;101488.59;146592;564;47010;-76
2022/04/12 11:50:20;;;;;;;;;2.75;2.75;;;;;19.29;28.37;101480.53;146588;563;46016;-77
2022/04/12 11:53:12;;;;;;;;;3.75;3.75;;;;;19.33;27.31;101484.16;146591;564;46917;-77
2022/04/12 11:56:06;;;;;;;;;4.00;4.00;;;;;19.43;27.25;101477.41;146591;618;46016;-76
2022/04/12 11:58:58;;;;;;;;;3.00;3.00;;;;;19.52;26.99;101477.63;146588;612;46010;-76
2022/04/12 12:01:49;;;;;;;;;3.00;3.00;;;;;19.63;28.04;101470.94;146588;684;46012;-77
2022/04/12 12:05:07;;;;;;;;;3.25;3.25;;;;;19.65;27.48;101452.56;146591;569;47008;-76
2022/04/12 12:08:03;;;;;;;;;4.00;4.00;;;;;19.62;26.60;101453.34;146589;642;46017;-78
2022/04/12 12:10:56;;;;;;;;;2.25;2.25;;;;;19.66;26.35;101450.00;146595;627;46008;-77
2022/04/12 12:14:00;;;;;;;;;3.00;3.00;;;;;19.46;25.46;101446.78;146591;563;46010;-76
2022/04/12 12:17:18;;;;;;;;;4.25;4.25;;;;;19.32;26.38;101437.66;146596;598;45021;-76
2022/04/12 12:20:11;;;;;;;;;3.00;3.00;;;;;19.26;26.59;101434.88;146615;590;45010;-75
2022/04/12 12:23:06;;;;;;;;;2.50;2.50;;;;;19.36;25.96;101434.25;146615;674;45021;-76
2022/04/12 12:26:00;;;;;;;;;4.00;3.00;;;;;19.57;28.00;101423.44;146614;597;45029;-77
2022/04/12 12:28:59;;;;;;;;;2.50;2.50;;;;;19.76;26.71;101415.16;146614;649;45020;-76
2022/04/12 12:31:52;;;;;;;;;3.75;2.75;;;;;19.91;26.12;101409.41;146614;591;45010;-75
2022/04/12 12:34:49;;;;;;;;;2.75;2.75;;;;;19.97;27.05;101409.53;146615;625;46008;-76
2022/04/12 12:37:42;;;;;;;;;3.75;3.75;;;;;19.94;25.59;101405.94;146612;629;45017;-76
2022/04/12 12:40:36;;;;;;;;;0.25;0.25;;;;;19.82;25.25;101398.66;146613;608;45020;-77
2022/04/12 12:43:30;;;;;;;;;5.00;4.00;;;;;19.70;26.53;101399.22;146614;605;45017;-75
2022/04/12 12:46:22;;;;;;;;;1.75;1.75;;;;;19.66;26.99;101394.75;146614;596;45027;-77
2022/04/12 12:49:19;;;;;;;;;1.50;1.50;;;;;19.56;26.01;101377.81;146614;578;46008;-76
2022/04/12 12:52:17;;;;;;;;;5.50;4.00;;;;;19.59;27.04;101384.88;146611;605;46009;-76
2022/04/12 12:55:18;;;;;;;;;4.75;4.75;;;;;19.43;25.99;101377.44;146615;666;45016;-77
2022/04/12 12:58:12;;;;;;;;;3.75;3.00;;;;;19.31;26.05;101378.91;146611;604;46008;-77
2022/04/12 13:01:08;;;;;;;;;7.50;4.50;;;;;19.20;26.43;101375.13;146614;575;45017;-76
2022/04/12 13:04:00;;;;;;;;;4.75;4.75;;;;;19.04;27.26;101372.94;146613;574;45027;-77
2022/04/12 13:07:03;;;;;;;;;4.00;4.00;;;;;18.98;27.14;101363.16;146613;595;45016;-73
2022/04/12 13:09:57;;;;;;;;;3.50;3.50;;;;;19.06;28.20;101358.09;146614;641;45020;-75
2022/04/12 13:12:50;;;;;;;;;5.00;5.00;;;;;19.23;26.71;101358.56;146612;619;45016;-74
2022/04/12 13:15:42;;;;;;;;;5.00;4.00;;;;;19.20;27.03;101348.84;146613;634;46917;-80
2022/04/12 13:18:34;;;;;;;;;6.25;5.00;;;;;19.21;27.30;101340.09;146601;639;46008;-77
2022/04/12 13:21:26;;;;;;;;;3.50;3.25;;;;;19.25;27.04;101338.41;146594;565;46021;-76
2022/04/12 13:24:18;;;;;;;;;5.00;5.00;;;;;19.33;27.46;101339.50;146592;569;46016;-75
2022/04/12 13:27:10;;;;;;;;;6.25;5.75;;;;;19.44;27.43;101326.62;146584;604;47008;-78
2022/04/12 13:30:02;;;;;;;;;5.50;4.75;;;;;19.43;26.96;101327.47;146592;564;46016;-77
2022/04/12 13:32:55;;;;;;;;;7.25;6.75;;;;;19.28;26.54;101321.00;146591;616;46008;-77